sensor_id;sensor_type;location;lat;lon;timestamp;pressure;altitude;pressure_sealevel;temperature;humidity
22031;BME280;11179;52.106;21.024;2022-12-07T00:00:28;99742.38;;;1.90;72.22
22031;BME280;11179;52.106;21.024;2022-12-07T00:02:53;99748.19;;;1.94;72.46
22031;BME280;11179;52.106;21.024;2022-12-07T00:05:19;99743.19;;;1.98;72.70
22031;BME280;11179;52.106;21.024;2022-12-07T00:07:44;99743.19;;;1.98;72.38
22031;BME280;11179;52.106;21.024;2022-12-07T00:10:09;99747.09;;;2.02;72.22
22031;BME280;11179;52.106;21.024;2022-12-07T00:12:35;99738.56;;;2.05;72.49
22031;BME280;11179;52.106;21.024;2022-12-07T00:15:00;99721.06;;;2.01;72.57
22031;BME280;11179;52.106;21.024;2022-12-07T00:17:25;99727.06;;;2.09;72.41
22031;BME280;11179;52.106;21.024;2022-12-07T00:19:51;99720.63;;;2.10;72.76
22031;BME280;11179;52.106;21.024;2022-12-07T00:22:16;99715.41;;;2.09;72.63
22031;BME280;11179;52.106;21.024;2022-12-07T00:24:41;99721.22;;;2.12;72.76
22031;BME280;11179;52.106;21.024;2022-12-07T00:27:07;99728.69;;;2.17;72.44
22031;BME280;11179;52.106;21.024;2022-12-07T00:29:32;99731.38;;;2.17;72.60
22031;BME280;11179;52.106;21.024;2022-12-07T00:31:57;99724.31;;;2.16;72.67
22031;BME280;11179;52.106;21.024;2022-12-07T00:34:23;99722.00;;;2.19;73.00
22031;BME280;11179;52.106;21.024;2022-12-07T00:36:49;99711.59;;;2.16;72.86
22031;BME280;11179;52.106;21.024;2022-12-07T00:39:14;99707.63;;;2.19;72.80
22031;BME280;11179;52.106;21.024;2022-12-07T00:41:40;99702.41;;;2.17;72.99
22031;BME280;11179;52.106;21.024;2022-12-07T00:44:05;99693.31;;;2.12;73.11
22031;BME280;11179;52.106;21.024;2022-12-07T00:46:31;99712.31;;;2.30;73.23
22031;BME280;11179;52.106;21.024;2022-12-07T00:48:56;99713.34;;;2.36;73.34
22031;BME280;11179;52.106;21.024;2022-12-07T00:51:23;99705.81;;;2.38;73.19
22031;BME280;11179;52.106;21.024;2022-12-07T00:53:49;99713.28;;;2.42;73.31
22031;BME280;11179;52.106;21.024;2022-12-07T00:56:17;99713.88;;;2.44;73.01
22031;BME280;11179;52.106;21.024;2022-12-07T00:58:43;99704.91;;;2.44;73.27
22031;BME280;11179;52.106;21.024;2022-12-07T01:01:09;99710.13;;;2.45;73.29
22031;BME280;11179;52.106;21.024;2022-12-07T01:03:36;99711.38;;;2.43;73.17
22031;BME280;11179;52.106;21.024;2022-12-07T01:06:02;99710.94;;;2.46;73.62
22031;BME280;11179;52.106;21.024;2022-12-07T01:08:28;99711.16;;;2.44;73.65
22031;BME280;11179;52.106;21.024;2022-12-07T01:11:03;99718.44;;;2.50;73.64
22031;BME280;11179;52.106;21.024;2022-12-07T01:13:29;99719.63;;;2.54;73.54
22031;BME280;11179;52.106;21.024;2022-12-07T01:15:57;99715.25;;;2.53;73.58
22031;BME280;11179;52.106;21.024;2022-12-07T01:18:25;99721.06;;;2.57;73.61
22031;BME280;11179;52.106;21.024;2022-12-07T01:21:18;99716.47;;;2.57;73.58
22031;BME280;11179;52.106;21.024;2022-12-07T01:23:44;99714.19;;;2.54;73.53
22031;BME280;11179;52.106;21.024;2022-12-07T01:26:11;99714.81;;;2.56;73.82
22031;BME280;11179;52.106;21.024;2022-12-07T01:28:37;99711.72;;;2.53;73.72
22031;BME280;11179;52.106;21.024;2022-12-07T01:31:08;99715.81;;;2.62;73.89
22031;BME280;11179;52.106;21.024;2022-12-07T01:33:37;99716.66;;;2.62;73.77
22031;BME280;11179;52.106;21.024;2022-12-07T01:36:05;99717.00;;;2.66;73.90
22031;BME280;11179;52.106;21.024;2022-12-07T01:38:31;99709.34;;;2.63;74.02
22031;BME280;11179;52.106;21.024;2022-12-07T01:40:57;99705.13;;;2.67;73.93
22031;BME280;11179;52.106;21.024;2022-12-07T01:43:24;99718.63;;;2.74;74.00
22031;BME280;11179;52.106;21.024;2022-12-07T01:45:50;99707.41;;;2.70;73.85
22031;BME280;11179;52.106;21.024;2022-12-07T01:48:18;99713.81;;;2.76;73.77
22031;BME280;11179;52.106;21.024;2022-12-07T01:50:48;99712.78;;;2.77;73.91
22031;BME280;11179;52.106;21.024;2022-12-07T01:53:16;99718.19;;;2.77;73.99
22031;BME280;11179;52.106;21.024;2022-12-07T01:55:45;99709.44;;;2.75;73.85
22031;BME280;11179;52.106;21.024;2022-12-07T01:58:11;99703.59;;;2.78;74.13
22031;BME280;11179;52.106;21.024;2022-12-07T02:00:38;99699.81;;;2.79;74.13
22031;BME280;11179;52.106;21.024;2022-12-07T02:03:08;99711.25;;;2.81;74.21
22031;BME280;11179;52.106;21.024;2022-12-07T02:05:38;99703.94;;;2.81;73.95
22031;BME280;11179;52.106;21.024;2022-12-07T02:08:05;99699.03;;;2.72;74.27
22031;BME280;11179;52.106;21.024;2022-12-07T02:10:31;99705.06;;;2.74;74.11
22031;BME280;11179;52.106;21.024;2022-12-07T02:18:29;99702.81;;;2.71;74.26
22031;BME280;11179;52.106;21.024;2022-12-07T02:21:08;99701.53;;;2.73;74.24
22031;BME280;11179;52.106;21.024;2022-12-07T02:31:36;99688.19;;;2.72;74.38
22031;BME280;11179;52.106;21.024;2022-12-07T02:34:08;99685.28;;;2.73;74.31
22031;BME280;11179;52.106;21.024;2022-12-07T02:36:42;99684.88;;;2.70;74.02
22031;BME280;11179;52.106;21.024;2022-12-07T02:39:16;99690.47;;;2.75;74.24
22031;BME280;11179;52.106;21.024;2022-12-07T02:41:44;99674.25;;;2.68;74.02
22031;BME280;11179;52.106;21.024;2022-12-07T02:44:18;99684.00;;;2.76;74.14
22031;BME280;11179;52.106;21.024;2022-12-07T02:46:51;99680.06;;;2.72;74.28
22031;BME280;11179;52.106;21.024;2022-12-07T02:49:18;99676.97;;;2.68;74.00
22031;BME280;11179;52.106;21.024;2022-12-07T02:51:45;99683.22;;;2.69;73.97
22031;BME280;11179;52.106;21.024;2022-12-07T02:54:15;99681.56;;;2.68;74.01
22031;BME280;11179;52.106;21.024;2022-12-07T02:59:34;99665.75;;;2.64;74.39
22031;BME280;11179;52.106;21.024;2022-12-07T03:10:17;99675.47;;;2.72;74.25
22031;BME280;11179;52.106;21.024;2022-12-07T03:12:53;99671.72;;;2.73;74.30
22031;BME280;11179;52.106;21.024;2022-12-07T03:15:28;99674.44;;;2.73;74.15
22031;BME280;11179;52.106;21.024;2022-12-07T03:17:57;99670.50;;;2.69;74.07
22031;BME280;11179;52.106;21.024;2022-12-07T03:20:25;99663.63;;;2.66;74.20
22031;BME280;11179;52.106;21.024;2022-12-07T03:22:54;99664.72;;;2.65;74.11
22031;BME280;11179;52.106;21.024;2022-12-07T03:25:19;99659.28;;;2.65;74.16
22031;BME280;11179;52.106;21.024;2022-12-07T03:28:00;99670.28;;;2.71;74.16
22031;BME280;11179;52.106;21.024;2022-12-07T03:30:38;99662.44;;;2.62;73.97
22031;BME280;11179;52.106;21.024;2022-12-07T03:33:19;99666.22;;;2.61;74.01
22031;BME280;11179;52.106;21.024;2022-12-07T03:35:52;99671.41;;;2.63;73.85
22031;BME280;11179;52.106;21.024;2022-12-07T03:38:30;99669.56;;;2.57;73.93
22031;BME280;11179;52.106;21.024;2022-12-07T03:41:14;99658.34;;;2.53;74.12
22031;BME280;11179;52.106;21.024;2022-12-07T03:43:42;99666.78;;;2.45;73.94
22031;BME280;11179;52.106;21.024;2022-12-07T03:49:00;99655.63;;;2.35;73.96
22031;BME280;11179;52.106;21.024;2022-12-07T03:51:54;99655.44;;;2.30;73.83
22031;BME280;11179;52.106;21.024;2022-12-07T03:54:30;99655.28;;;2.25;74.05
22031;BME280;11179;52.106;21.024;2022-12-07T03:56:57;99655.66;;;2.28;73.86
22031;BME280;11179;52.106;21.024;2022-12-07T03:59:24;99653.78;;;2.29;73.69
22031;BME280;11179;52.106;21.024;2022-12-07T04:01:56;99649.88;;;2.25;73.87
22031;BME280;11179;52.106;21.024;2022-12-07T04:04:24;99642.19;;;2.22;73.61
22031;BME280;11179;52.106;21.024;2022-12-07T04:06:50;99646.78;;;2.21;73.59
22031;BME280;11179;52.106;21.024;2022-12-07T04:09:16;99635.75;;;2.16;73.63
22031;BME280;11179;52.106;21.024;2022-12-07T04:17:55;99645.41;;;2.12;73.49
22031;BME280;11179;52.106;21.024;2022-12-07T04:20:20;99646.19;;;2.13;73.70
22031;BME280;11179;52.106;21.024;2022-12-07T04:22:46;99645.56;;;2.17;73.61
22031;BME280;11179;52.106;21.024;2022-12-07T04:25:11;99642.00;;;2.17;73.51
22031;BME280;11179;52.106;21.024;2022-12-07T04:27:37;99641.19;;;2.16;73.34
22031;BME280;11179;52.106;21.024;2022-12-07T04:30:02;99628.38;;;2.05;73.42
22031;BME280;11179;52.106;21.024;2022-12-07T04:32:28;99635.63;;;2.11;73.44
22031;BME280;11179;52.106;21.024;2022-12-07T04:34:53;99633.56;;;2.07;73.34
22031;BME280;11179;52.106;21.024;2022-12-07T04:37:19;99647.88;;;2.14;73.25
22031;BME280;11179;52.106;21.024;2022-12-07T04:39:44;99639.81;;;2.07;73.49
22031;BME280;11179;52.106;21.024;2022-12-07T04:42:10;99645.00;;;2.09;73.31
22031;BME280;11179;52.106;21.024;2022-12-07T04:44:36;99642.91;;;2.11;73.42
22031;BME280;11179;52.106;21.024;2022-12-07T04:47:01;99639.19;;;2.05;73.37
22031;BME280;11179;52.106;21.024;2022-12-07T04:49:27;99646.19;;;2.13;73.12
22031;BME280;11179;52.106;21.024;2022-12-07T04:51:52;99632.53;;;2.08;72.98
22031;BME280;11179;52.106;21.024;2022-12-07T04:54:17;99647.03;;;2.13;73.25
22031;BME280;11179;52.106;21.024;2022-12-07T04:56:43;99635.63;;;2.11;72.95
22031;BME280;11179;52.106;21.024;2022-12-07T04:59:10;99633.97;;;2.10;73.18
22031;BME280;11179;52.106;21.024;2022-12-07T05:01:36;99632.13;;;2.04;73.08
22031;BME280;11179;52.106;21.024;2022-12-07T05:04:02;99622.56;;;2.02;73.35
22031;BME280;11179;52.106;21.024;2022-12-07T05:06:27;99620.53;;;1.97;73.04
22031;BME280;11179;52.106;21.024;2022-12-07T05:08:53;99622.19;;;1.98;73.10
22031;BME280;11179;52.106;21.024;2022-12-07T05:11:18;99615.16;;;1.90;73.01
22031;BME280;11179;52.106;21.024;2022-12-07T05:14:05;99619.69;;;1.97;73.11
22031;BME280;11179;52.106;21.024;2022-12-07T05:16:31;99613.50;;;1.89;72.94
22031;BME280;11179;52.106;21.024;2022-12-07T05:18:56;99616.19;;;1.89;72.90
22031;BME280;11179;52.106;21.024;2022-12-07T05:21:22;99611.41;;;1.91;72.91
22031;BME280;11179;52.106;21.024;2022-12-07T05:23:48;99610.78;;;1.89;72.69
22031;BME280;11179;52.106;21.024;2022-12-07T05:26:13;99607.72;;;1.86;72.95
22031;BME280;11179;52.106;21.024;2022-12-07T05:28:38;99616.19;;;1.89;72.80
22031;BME280;11179;52.106;21.024;2022-12-07T05:31:04;99613.56;;;1.83;72.54
22031;BME280;11179;52.106;21.024;2022-12-07T05:33:29;99617.72;;;1.85;72.85
22031;BME280;11179;52.106;21.024;2022-12-07T05:35:55;99621.00;;;1.87;72.78
22031;BME280;11179;52.106;21.024;2022-12-07T05:38:20;99595.88;;;1.80;72.80
22031;BME280;11179;52.106;21.024;2022-12-07T05:40:45;99606.69;;;1.80;72.56
22031;BME280;11179;52.106;21.024;2022-12-07T05:43:11;99610.84;;;1.83;72.58
22031;BME280;11179;52.106;21.024;2022-12-07T05:45:36;99614.59;;;1.82;72.34
22031;BME280;11179;52.106;21.024;2022-12-07T05:48:02;99608.41;;;1.75;72.31
22031;BME280;11179;52.106;21.024;2022-12-07T05:50:27;99629.63;;;1.78;72.58
22031;BME280;11179;52.106;21.024;2022-12-07T05:52:53;99608.69;;;1.67;72.76
22031;BME280;11179;52.106;21.024;2022-12-07T05:55:19;99620.66;;;1.77;72.43
22031;BME280;11179;52.106;21.024;2022-12-07T05:57:44;99621.50;;;1.78;72.69
22031;BME280;11179;52.106;21.024;2022-12-07T06:00:30;99612.16;;;1.74;72.44
22031;BME280;11179;52.106;21.024;2022-12-07T06:02:55;99613.22;;;1.73;72.40
22031;BME280;11179;52.106;21.024;2022-12-07T06:05:20;99610.28;;;1.74;72.38
22031;BME280;11179;52.106;21.024;2022-12-07T06:07:46;99620.44;;;1.79;72.59
22031;BME280;11179;52.106;21.024;2022-12-07T06:10:11;99622.31;;;1.78;72.94
22031;BME280;11179;52.106;21.024;2022-12-07T06:12:36;99612.41;;;1.72;72.38
22031;BME280;11179;52.106;21.024;2022-12-07T06:15:05;99612.81;;;1.69;72.61
22031;BME280;11179;52.106;21.024;2022-12-07T06:17:30;99617.81;;;1.72;72.70
22031;BME280;11179;52.106;21.024;2022-12-07T06:19:55;99612.44;;;1.66;72.36
22031;BME280;11179;52.106;21.024;2022-12-07T06:22:21;99619.50;;;1.67;72.79
22031;BME280;11179;52.106;21.024;2022-12-07T06:24:46;99609.78;;;1.59;72.49
22031;BME280;11179;52.106;21.024;2022-12-07T06:27:12;99614.13;;;1.60;72.58
22031;BME280;11179;52.106;21.024;2022-12-07T06:29:37;99621.66;;;1.58;72.65
22031;BME280;11179;52.106;21.024;2022-12-07T06:32:03;99614.56;;;1.57;72.57
22031;BME280;11179;52.106;21.024;2022-12-07T06:34:29;99616.44;;;1.56;72.51
22031;BME280;11179;52.106;21.024;2022-12-07T06:36:55;99616.25;;;1.58;72.35
22031;BME280;11179;52.106;21.024;2022-12-07T06:39:22;99613.53;;;1.58;72.38
22031;BME280;11179;52.106;21.024;2022-12-07T06:41:49;99608.75;;;1.53;72.27
22031;BME280;11179;52.106;21.024;2022-12-07T06:44:15;99607.31;;;1.51;72.54
22031;BME280;11179;52.106;21.024;2022-12-07T06:46:40;99601.91;;;1.51;72.52
22031;BME280;11179;52.106;21.024;2022-12-07T06:49:05;99609.59;;;1.54;72.54
22031;BME280;11179;52.106;21.024;2022-12-07T06:51:32;99611.25;;;1.55;72.59
22031;BME280;11179;52.106;21.024;2022-12-07T06:53:58;99610.81;;;1.58;72.48
22031;BME280;11179;52.106;21.024;2022-12-07T06:56:23;99610.38;;;1.61;72.62
22031;BME280;11179;52.106;21.024;2022-12-07T06:58:49;99596.25;;;1.59;72.46
22031;BME280;11179;52.106;21.024;2022-12-07T07:01:17;99621.59;;;1.65;72.32
22031;BME280;11179;52.106;21.024;2022-12-07T07:03:43;99601.03;;;1.57;72.53
22031;BME280;11179;52.106;21.024;2022-12-07T07:06:09;99608.56;;;1.55;72.10
22031;BME280;11179;52.106;21.024;2022-12-07T07:08:36;99620.41;;;1.54;72.52
22031;BME280;11179;52.106;21.024;2022-12-07T07:11:02;99619.38;;;1.55;72.43
22031;BME280;11179;52.106;21.024;2022-12-07T07:13:27;99616.44;;;1.56;72.30
22031;BME280;11179;52.106;21.024;2022-12-07T07:15:53;99616.66;;;1.55;72.28
22031;BME280;11179;52.106;21.024;2022-12-07T07:18:18;99618.75;;;1.53;72.25
22031;BME280;11179;52.106;21.024;2022-12-07T07:20:44;99615.84;;;1.48;72.43
22031;BME280;11179;52.106;21.024;2022-12-07T07:23:09;99605.88;;;1.48;72.50
22031;BME280;11179;52.106;21.024;2022-12-07T07:25:34;99613.75;;;1.56;72.32
22031;BME280;11179;52.106;21.024;2022-12-07T07:28:00;99625.41;;;1.57;72.49
22031;BME280;11179;52.106;21.024;2022-12-07T07:30:26;99618.31;;;1.56;72.22
22031;BME280;11179;52.106;21.024;2022-12-07T07:32:56;99614.19;;;1.53;72.39
22031;BME280;11179;52.106;21.024;2022-12-07T07:35:22;99621.66;;;1.51;72.38
22031;BME280;11179;52.106;21.024;2022-12-07T07:37:47;99618.13;;;1.51;72.57
22031;BME280;11179;52.106;21.024;2022-12-07T07:40:13;99624.59;;;1.50;72.46
22031;BME280;11179;52.106;21.024;2022-12-07T07:42:38;99619.19;;;1.50;72.42
22031;BME280;11179;52.106;21.024;2022-12-07T07:45:04;99625.00;;;1.53;72.64
22031;BME280;11179;52.106;21.024;2022-12-07T07:47:29;99612.56;;;1.46;72.29
22031;BME280;11179;52.106;21.024;2022-12-07T07:49:55;99605.50;;;1.45;72.56
22031;BME280;11179;52.106;21.024;2022-12-07T07:52:20;99621.28;;;1.48;72.63
22031;BME280;11179;52.106;21.024;2022-12-07T07:54:45;99614.66;;;1.44;72.81
22031;BME280;11179;52.106;21.024;2022-12-07T07:57:11;99617.53;;;1.49;72.83
22031;BME280;11179;52.106;21.024;2022-12-07T07:59:36;99614.19;;;1.47;72.83
22031;BME280;11179;52.106;21.024;2022-12-07T08:02:01;99615.84;;;1.48;72.75
22031;BME280;11179;52.106;21.024;2022-12-07T08:04:27;99614.38;;;1.52;72.89
22031;BME280;11179;52.106;21.024;2022-12-07T08:06:52;99622.06;;;1.55;72.81
22031;BME280;11179;52.106;21.024;2022-12-07T08:09:17;99620.41;;;1.54;72.66
22031;BME280;11179;52.106;21.024;2022-12-07T08:11:43;99624.56;;;1.56;72.65
22031;BME280;11179;52.106;21.024;2022-12-07T08:14:10;99618.31;;;1.56;72.71
22031;BME280;11179;52.106;21.024;2022-12-07T08:16:35;99626.38;;;1.63;72.84
22031;BME280;11179;52.106;21.024;2022-12-07T08:19:00;99628.25;;;1.62;72.75
22031;BME280;11179;52.106;21.024;2022-12-07T08:21:26;99633.66;;;1.69;72.72
22031;BME280;11179;52.106;21.024;2022-12-07T08:23:51;99621.38;;;1.66;72.85
22031;BME280;11179;52.106;21.024;2022-12-07T08:26:16;99630.94;;;1.69;72.85
22031;BME280;11179;52.106;21.024;2022-12-07T08:28:42;99630.94;;;1.69;72.96
22031;BME280;11179;52.106;21.024;2022-12-07T08:31:14;99632.38;;;1.71;72.82
22031;BME280;11179;52.106;21.024;2022-12-07T08:33:41;99639.22;;;1.74;73.04
22031;BME280;11179;52.106;21.024;2022-12-07T08:36:09;99635.25;;;1.76;72.87
22031;BME280;11179;52.106;21.024;2022-12-07T08:38:36;99641.09;;;1.73;73.09
22031;BME280;11179;52.106;21.024;2022-12-07T08:41:02;99636.16;;;1.64;72.94
22031;BME280;11179;52.106;21.024;2022-12-07T08:43:28;99635.31;;;1.70;73.12
22031;BME280;11179;52.106;21.024;2022-12-07T08:46:13;99626.97;;;1.71;73.27
22031;BME280;11179;52.106;21.024;2022-12-07T08:48:45;99630.22;;;1.80;73.34
22031;BME280;11179;52.106;21.024;2022-12-07T08:51:11;99636.91;;;1.77;73.31
22031;BME280;11179;52.106;21.024;2022-12-07T08:53:38;99638.75;;;1.83;73.35
22031;BME280;11179;52.106;21.024;2022-12-07T08:56:04;99643.06;;;1.91;73.28
22031;BME280;11179;52.106;21.024;2022-12-07T08:58:32;99627.66;;;1.91;73.42
22031;BME280;11179;52.106;21.024;2022-12-07T09:00:57;99629.63;;;2.03;73.50
22031;BME280;11179;52.106;21.024;2022-12-07T09:03:23;99637.72;;;2.09;73.37
22031;BME280;11179;52.106;21.024;2022-12-07T09:05:48;99636.59;;;2.17;73.58
22031;BME280;11179;52.106;21.024;2022-12-07T09:08:14;99623.75;;;2.12;73.33
22031;BME280;11179;52.106;21.024;2022-12-07T09:10:39;99632.41;;;2.21;73.46
22031;BME280;11179;52.106;21.024;2022-12-07T09:13:04;99631.97;;;2.24;73.33
22031;BME280;11179;52.106;21.024;2022-12-07T09:15:30;99615.72;;;2.24;73.43
22031;BME280;11179;52.106;21.024;2022-12-07T09:17:56;99626.44;;;2.37;73.63
22031;BME280;11179;52.106;21.024;2022-12-07T09:20:21;99618.31;;;2.37;73.63
22031;BME280;11179;52.106;21.024;2022-12-07T09:22:47;99615.28;;;2.45;73.55
22031;BME280;11179;52.106;21.024;2022-12-07T09:25:12;99624.19;;;2.52;73.54
22031;BME280;11179;52.106;21.024;2022-12-07T09:27:38;99611.69;;;2.51;73.41
22031;BME280;11179;52.106;21.024;2022-12-07T09:30:04;99612.88;;;2.55;73.53
22031;BME280;11179;52.106;21.024;2022-12-07T09:32:30;99609.34;;;2.55;73.49
22031;BME280;11179;52.106;21.024;2022-12-07T09:34:56;99607.84;;;2.59;73.54
22031;BME280;11179;52.106;21.024;2022-12-07T09:37:21;99604.69;;;2.62;73.42
22031;BME280;11179;52.106;21.024;2022-12-07T09:39:47;99604.00;;;2.66;73.39
22031;BME280;11179;52.106;21.024;2022-12-07T09:42:39;99609.00;;;2.70;73.23
22031;BME280;11179;52.106;21.024;2022-12-07T09:45:12;99610.19;;;2.74;73.36
22031;BME280;11179;52.106;21.024;2022-12-07T09:47:39;99612.31;;;2.72;73.50
22031;BME280;11179;52.106;21.024;2022-12-07T09:50:10;99602.22;;;2.79;73.54
22031;BME280;11179;52.106;21.024;2022-12-07T09:52:37;99598.59;;;2.85;73.51
22031;BME280;11179;52.106;21.024;2022-12-07T09:55:10;99603.78;;;2.86;73.35
22031;BME280;11179;52.106;21.024;2022-12-07T09:57:36;99608.00;;;2.82;73.32
22031;BME280;11179;52.106;21.024;2022-12-07T10:00:09;99591.13;;;2.80;73.35
22031;BME280;11179;52.106;21.024;2022-12-07T10:02:37;99611.72;;;2.88;73.28
22031;BME280;11179;52.106;21.024;2022-12-07T10:05:05;99606.28;;;2.88;73.27
22031;BME280;11179;52.106;21.024;2022-12-07T10:07:32;99605.22;;;2.89;73.17
22031;BME280;11179;52.106;21.024;2022-12-07T10:09:57;99592.84;;;2.93;73.14
22031;BME280;11179;52.106;21.024;2022-12-07T10:12:23;99581.44;;;2.91;73.18
22031;BME280;11179;52.106;21.024;2022-12-07T10:15:03;99585.25;;;3.01;72.88
22031;BME280;11179;52.106;21.024;2022-12-07T10:17:32;99580.78;;;3.07;72.68
22031;BME280;11179;52.106;21.024;2022-12-07T10:25:25;99589.53;;;3.09;72.69
22031;BME280;11179;52.106;21.024;2022-12-07T10:35:56;99591.41;;;3.09;72.41
22031;BME280;11179;52.106;21.024;2022-12-07T10:38:21;99594.59;;;3.06;72.25
22031;BME280;11179;52.106;21.024;2022-12-07T10:40:47;99595.09;;;3.14;72.66
22031;BME280;11179;52.106;21.024;2022-12-07T10:56:46;99597.38;;;3.17;72.26
22031;BME280;11179;52.106;21.024;2022-12-07T10:59:41;99591.34;;;3.15;71.98
22031;BME280;11179;52.106;21.024;2022-12-07T11:13:20;99589.06;;;3.30;71.84
22031;BME280;11179;52.106;21.024;2022-12-07T11:18:59;99594.47;;;3.30;71.83
22031;BME280;11179;52.106;21.024;2022-12-07T11:21:50;99589.22;;;3.17;71.45
22031;BME280;11179;52.106;21.024;2022-12-07T11:24:19;99579.50;;;3.10;71.53
22031;BME280;11179;52.106;21.024;2022-12-07T11:32:01;99587.56;;;3.16;71.61
22031;BME280;11179;52.106;21.024;2022-12-07T11:37:18;99573.31;;;3.21;71.53
22031;BME280;11179;52.106;21.024;2022-12-07T11:39:50;99575.66;;;3.17;71.43
22031;BME280;11179;52.106;21.024;2022-12-07T11:42:26;99570.09;;;3.12;71.41
22031;BME280;11179;52.106;21.024;2022-12-07T11:45:03;99570.69;;;3.14;71.34
22031;BME280;11179;52.106;21.024;2022-12-07T11:47:45;99573.63;;;3.13;71.25
22031;BME280;11179;52.106;21.024;2022-12-07T11:50:33;99562.78;;;3.13;71.10
22031;BME280;11179;52.106;21.024;2022-12-07T11:53:10;99566.56;;;3.12;71.45
22031;BME280;11179;52.106;21.024;2022-12-07T11:56:06;99575.50;;;3.12;71.53
22031;BME280;11179;52.106;21.024;2022-12-07T12:03:37;99575.97;;;3.09;71.65
22031;BME280;11179;52.106;21.024;2022-12-07T12:06:05;99575.63;;;3.06;71.59
22031;BME280;11179;52.106;21.024;2022-12-07T12:08:34;99568.88;;;3.08;71.37
22031;BME280;11179;52.106;21.024;2022-12-07T12:11:33;99562.56;;;3.14;71.43
22031;BME280;11179;52.106;21.024;2022-12-07T12:20:37;99564.81;;;3.17;70.98
22031;BME280;11179;52.106;21.024;2022-12-07T12:25:46;99557.44;;;3.06;71.43
22031;BME280;11179;52.106;21.024;2022-12-07T12:28:40;99562.28;;;3.04;71.33
22031;BME280;11179;52.106;21.024;2022-12-07T12:33:43;99552.59;;;3.08;71.49
22031;BME280;11179;52.106;21.024;2022-12-07T12:50:11;99544.03;;;2.93;71.10
22031;BME280;11179;52.106;21.024;2022-12-07T12:57:34;99531.09;;;2.95;71.25
22031;BME280;11179;52.106;21.024;2022-12-07T13:00:22;99537.34;;;2.95;71.09
22031;BME280;11179;52.106;21.024;2022-12-07T13:02:51;99533.19;;;2.93;71.24
22031;BME280;11179;52.106;21.024;2022-12-07T13:05:27;99530.50;;;2.93;71.14
22031;BME280;11179;52.106;21.024;2022-12-07T13:08:00;99538.56;;;2.99;71.36
22031;BME280;11179;52.106;21.024;2022-12-07T13:15:43;99535.91;;;2.93;71.08
22031;BME280;11179;52.106;21.024;2022-12-07T13:23:57;99526.59;;;2.89;71.19
22031;BME280;11179;52.106;21.024;2022-12-07T13:26:36;99526.16;;;2.92;71.12
22031;BME280;11179;52.106;21.024;2022-12-07T13:29:20;99522.63;;;2.91;70.89
22031;BME280;11179;52.106;21.024;2022-12-07T13:31:55;99514.56;;;2.85;70.82
22031;BME280;11179;52.106;21.024;2022-12-07T13:37:00;99508.97;;;2.80;70.66
22031;BME280;11179;52.106;21.024;2022-12-07T13:39:27;99515.97;;;2.87;70.84
22031;BME280;11179;52.106;21.024;2022-12-07T13:41:57;99525.78;;;2.88;70.81
22031;BME280;11179;52.106;21.024;2022-12-07T13:44:24;99529.22;;;2.95;70.71
22031;BME280;11179;52.106;21.024;2022-12-07T13:49:27;99519.41;;;2.94;70.90
22031;BME280;11179;52.106;21.024;2022-12-07T13:51:55;99531.09;;;2.95;70.67
22031;BME280;11179;52.106;21.024;2022-12-07T13:54:31;99537.13;;;2.97;70.82
22031;BME280;11179;52.106;21.024;2022-12-07T13:56:57;99527.88;;;2.86;70.59
22031;BME280;11179;52.106;21.024;2022-12-07T13:59:25;99545.88;;;2.81;70.54
22031;BME280;11179;52.106;21.024;2022-12-07T14:01:51;99539.28;;;2.77;70.79
22031;BME280;11179;52.106;21.024;2022-12-07T14:06:56;99540.47;;;2.81;70.83
22031;BME280;11179;52.106;21.024;2022-12-07T14:09:24;99536.56;;;2.77;70.61
22031;BME280;11179;52.106;21.024;2022-12-07T14:11:52;99541.22;;;2.70;70.51
22031;BME280;11179;52.106;21.024;2022-12-07T14:14:25;99533.19;;;2.63;70.58
22031;BME280;11179;52.106;21.024;2022-12-07T14:19:50;99527.44;;;2.53;70.73
22031;BME280;11179;52.106;21.024;2022-12-07T14:22:24;99539.72;;;2.55;70.88
22031;BME280;11179;52.106;21.024;2022-12-07T14:24:50;99539.59;;;2.50;70.63
22031;BME280;11179;52.106;21.024;2022-12-07T14:27:21;99547.34;;;2.47;70.94
22031;BME280;11179;52.106;21.024;2022-12-07T14:29:48;99551.31;;;2.44;70.68
22031;BME280;11179;52.106;21.024;2022-12-07T14:32:24;99542.13;;;2.45;70.70
22031;BME280;11179;52.106;21.024;2022-12-07T14:34:56;99543.19;;;2.44;70.65
22031;BME280;11179;52.106;21.024;2022-12-07T14:37:23;99536.44;;;2.35;70.67
22031;BME280;11179;52.106;21.024;2022-12-07T14:39:48;99543.50;;;2.36;70.76
22031;BME280;11179;52.106;21.024;2022-12-07T14:42:14;99537.53;;;2.27;70.78
22031;BME280;11179;52.106;21.024;2022-12-07T14:44:39;99544.78;;;2.34;70.74
22031;BME280;11179;52.106;21.024;2022-12-07T14:47:05;99542.13;;;2.27;70.47
22031;BME280;11179;52.106;21.024;2022-12-07T14:49:30;99543.63;;;2.23;70.42
22031;BME280;11179;52.106;21.024;2022-12-07T14:51:56;99544.06;;;2.20;70.45
22031;BME280;11179;52.106;21.024;2022-12-07T14:54:25;99541.97;;;2.22;70.45
22031;BME280;11179;52.106;21.024;2022-12-07T14:56:54;99544.31;;;2.18;70.58
22031;BME280;11179;52.106;21.024;2022-12-07T14:59:19;99549.94;;;2.17;70.43
22031;BME280;11179;52.106;21.024;2022-12-07T15:01:45;99534.22;;;2.07;70.52
22031;BME280;11179;52.106;21.024;2022-12-07T15:04:10;99538.56;;;2.08;70.65
22031;BME280;11179;52.106;21.024;2022-12-07T15:06:36;99541.66;;;2.12;70.56
22031;BME280;11179;52.106;21.024;2022-12-07T15:09:02;99529.44;;;2.03;70.72
22031;BME280;11179;52.106;21.024;2022-12-07T15:11:27;99526.97;;;2.01;70.56
22031;BME280;11179;52.106;21.024;2022-12-07T15:13:53;99538.41;;;2.03;70.61
22031;BME280;11179;52.106;21.024;2022-12-07T15:16:34;99529.09;;;1.99;70.79
22031;BME280;11179;52.106;21.024;2022-12-07T15:18:59;99527.19;;;2.00;70.62
22031;BME280;11179;52.106;21.024;2022-12-07T15:21:24;99536.75;;;2.02;70.78
22031;BME280;11179;52.106;21.024;2022-12-07T15:23:50;99534.50;;;1.99;70.65
22031;BME280;11179;52.106;21.024;2022-12-07T15:26:15;99524.78;;;1.91;70.68